Time;durP1;ratioP1;P1;durP2;ratioP2;P2;SDS_P1;SDS_P2;PMS_P1;PMS_P2;Temp;Humidity;BMP_temperature;BMP_pressure;BME280_temperature;BME280_humidity;BME280_pressure;Samples;Min_cycle;Max_cycle;Signal;HPM_P1;HPM_P2
2023/07/22 00:02:17;;;;;;;13.23;7.50;;;14.00;99.90;;;;;;5055814;28;20044;-61
2023/07/22 00:04:43;;;;;;;12.95;7.78;;;14.00;99.90;;;;;;5055636;28;20484;-62
2023/07/22 00:07:09;;;;;;;14.68;8.20;;;13.90;99.90;;;;;;5074028;28;20119;-63
2023/07/22 00:09:35;;;;;;;13.98;8.38;;;13.90;99.90;;;;;;5073640;28;20032;-62
2023/07/22 00:12:01;;;;;;;13.32;7.82;;;13.90;99.90;;;;;;5073447;28;20037;-62
2023/07/22 00:14:27;;;;;;;12.75;7.97;;;13.80;99.90;;;;;;5073826;28;20107;-62
2023/07/22 00:16:52;;;;;;;17.67;9.13;;;13.80;99.90;;;;;;5039286;28;20049;-63
2023/07/22 00:19:18;;;;;;;14.88;8.13;;;13.70;99.90;;;;;;5073577;28;20036;-63
2023/07/22 00:21:44;;;;;;;15.75;9.07;;;13.60;99.90;;;;;;5073749;28;20045;-63
2023/07/22 00:24:10;;;;;;;15.32;8.48;;;13.60;99.90;;;;;;5055588;28;20087;-63
2023/07/22 00:26:36;;;;;;;14.73;8.82;;;13.50;99.90;;;;;;5073735;28;20048;-63
2023/07/22 00:29:02;;;;;;;15.38;9.15;;;13.50;99.90;;;;;;5073702;28;20083;-62
2023/07/22 00:31:28;;;;;;;14.23;8.82;;;13.40;99.90;;;;;;5055298;28;20072;-63
2023/07/22 00:33:54;;;;;;;15.38;8.75;;;13.40;99.90;;;;;;5073279;28;20149;-62
2023/07/22 00:36:20;;;;;;;16.67;9.07;;;13.40;99.90;;;;;;5073299;28;20119;-62
2023/07/22 00:38:46;;;;;;;14.02;9.18;;;13.40;99.90;;;;;;5073540;28;20036;-62
2023/07/22 00:41:11;;;;;;;15.23;9.10;;;13.40;99.90;;;;;;5055629;28;20508;-62
2023/07/22 00:43:38;;;;;;;14.73;8.75;;;13.40;99.90;;;;;;5073541;28;20055;-62
2023/07/22 00:46:04;;;;;;;15.20;8.60;;;13.30;99.90;;;;;;5072150;28;20115;-62
2023/07/22 00:48:31;;;;;;;13.95;8.73;;;13.20;99.90;;;;;;5073014;28;20056;-62
2023/07/22 00:50:57;;;;;;;13.95;8.40;;;13.20;99.90;;;;;;5055064;28;20036;-62
2023/07/22 00:53:23;;;;;;;16.83;8.90;;;13.20;99.90;;;;;;5073397;28;20044;-62
2023/07/22 00:55:49;;;;;;;15.95;9.73;;;13.10;99.90;;;;;;5073218;28;20385;-62
2023/07/22 00:58:15;;;;;;;15.90;9.32;;;13.10;99.90;;;;;;5073017;28;20047;-62
2023/07/22 01:00:41;;;;;;;14.30;9.18;;;13.10;99.90;;;;;;5073284;28;20028;-62
2023/07/22 01:03:07;;;;;;;15.30;8.93;;;13.10;99.90;;;;;;5072990;28;20037;-62
2023/07/22 01:05:36;;;;;;;13.50;8.40;;;13.10;99.90;;;;;;5072893;28;20039;-63
2023/07/22 01:08:02;;;;;;;15.73;8.23;;;13.00;99.90;;;;;;5072817;28;20059;-62
2023/07/22 01:10:28;;;;;;;15.75;8.40;;;13.10;99.90;;;;;;5055388;28;20102;-63
2023/07/22 01:12:56;;;;;;;15.00;8.75;;;13.00;99.90;;;;;;5054917;28;20049;-63
2023/07/22 01:15:23;;;;;;;17.38;8.82;;;13.00;99.90;;;;;;5054860;28;20048;-63
2023/07/22 01:17:50;;;;;;;11.85;7.65;;;13.00;99.90;;;;;;5055342;28;20028;-63
2023/07/22 01:20:18;;;;;;;14.43;8.15;;;13.00;99.90;;;;;;5055168;28;20037;-62
2023/07/22 01:22:52;;;;;;;15.13;9.07;;;13.00;99.90;;;;;;5072772;28;20052;-63
2023/07/22 01:25:19;;;;;;;12.60;8.38;;;13.10;99.90;;;;;;5054899;28;20036;-61
2023/07/22 01:27:45;;;;;;;14.00;8.40;;;13.10;99.90;;;;;;5054967;28;20041;-61
2023/07/22 01:30:11;;;;;;;12.75;8.38;;;13.10;99.90;;;;;;5072942;28;20039;-62
2023/07/22 01:32:38;;;;;;;12.27;8.50;;;13.00;99.90;;;;;;5072597;28;20049;-63
2023/07/22 01:35:04;;;;;;;15.35;8.68;;;13.00;99.90;;;;;;5054684;28;20044;-63
2023/07/22 01:37:31;;;;;;;15.00;9.43;;;13.00;99.90;;;;;;5072978;28;20102;-63
2023/07/22 01:39:57;;;;;;;12.18;8.27;;;13.00;99.90;;;;;;5072641;28;20043;-62
2023/07/22 01:42:23;;;;;;;13.68;8.70;;;13.00;99.90;;;;;;5055088;28;20037;-62
2023/07/22 01:44:48;;;;;;;15.30;8.90;;;12.90;99.90;;;;;;5072523;28;20080;-63
2023/07/22 01:47:14;;;;;;;11.00;7.35;;;12.90;99.90;;;;;;5054843;28;20043;-62
2023/07/22 01:49:40;;;;;;;12.85;7.60;;;12.90;99.90;;;;;;5072773;28;20040;-63
2023/07/22 01:52:06;;;;;;;13.98;8.57;;;12.90;99.90;;;;;;5054538;28;20085;-62
2023/07/22 01:54:32;;;;;;;14.35;8.77;;;12.90;99.90;;;;;;5054767;28;20534;-62
2023/07/22 01:56:58;;;;;;;13.38;7.68;;;12.90;99.90;;;;;;5056641;28;20040;-62
2023/07/22 01:59:25;;;;;;;12.13;7.93;;;13.00;99.90;;;;;;5076322;28;20079;-63
2023/07/22 02:01:51;;;;;;;13.50;8.88;;;13.00;99.90;;;;;;5076053;28;20044;-62
2023/07/22 02:04:17;;;;;;;11.55;7.82;;;13.00;99.90;;;;;;5058251;28;20123;-63
2023/07/22 02:06:43;;;;;;;14.07;8.68;;;13.00;99.90;;;;;;5076028;28;20047;-61
2023/07/22 02:09:08;;;;;;;12.75;7.78;;;12.90;99.90;;;;;;5076257;28;20036;-63
2023/07/22 02:11:37;;;;;;;13.18;8.25;;;13.00;99.90;;;;;;5075808;28;20040;-63
2023/07/22 02:14:06;;;;;;;11.32;7.68;;;12.90;99.90;;;;;;5075890;28;20090;-63
2023/07/22 02:16:34;;;;;;;13.38;8.35;;;13.00;99.90;;;;;;5076088;28;20381;-62
2023/07/22 02:19:00;;;;;;;11.75;7.50;;;13.00;99.90;;;;;;5058298;28;20037;-62
2023/07/22 02:21:26;;;;;;;13.90;8.50;;;13.00;99.90;;;;;;5076175;28;20365;-62
2023/07/22 02:23:52;;;;;;;14.00;8.82;;;13.00;99.90;;;;;;5041176;28;20080;-62
2023/07/22 02:26:17;;;;;;;12.13;7.75;;;13.00;99.90;;;;;;5058198;28;20123;-62
2023/07/22 02:28:43;;;;;;;11.38;7.72;;;13.00;99.90;;;;;;5057877;28;20407;-62
2023/07/22 02:31:10;;;;;;;11.38;7.20;;;13.00;99.90;;;;;;5075454;28;20085;-62
2023/07/22 02:33:37;;;;;;;11.73;8.25;;;13.00;99.90;;;;;;5075381;28;20048;-64
2023/07/22 02:36:03;;;;;;;13.80;8.68;;;13.00;99.90;;;;;;5075470;28;20060;-63
2023/07/22 02:38:28;;;;;;;12.85;7.75;;;13.00;99.90;;;;;;5057628;28;20037;-62
2023/07/22 02:40:54;;;;;;;13.38;8.57;;;12.90;99.90;;;;;;5075689;28;20115;-62
2023/07/22 02:43:20;;;;;;;14.73;9.27;;;13.00;99.90;;;;;;5057495;28;20091;-62
2023/07/22 02:45:46;;;;;;;13.05;8.27;;;12.90;99.90;;;;;;5075285;28;20090;-63
2023/07/22 02:48:11;;;;;;;13.85;9.00;;;12.90;99.90;;;;;;5075256;28;20084;-62
2023/07/22 02:50:37;;;;;;;12.10;8.30;;;12.90;99.90;;;;;;5075432;28;20041;-63
2023/07/22 02:53:03;;;;;;;14.45;8.38;;;12.90;99.90;;;;;;5075365;28;20123;-63
2023/07/22 02:55:29;;;;;;;12.93;8.57;;;12.80;99.90;;;;;;5057351;28;20040;-63
2023/07/22 02:57:54;;;;;;;14.98;9.40;;;12.80;99.90;;;;;;5074977;28;20090;-63
2023/07/22 03:00:23;;;;;;;14.13;9.20;;;12.70;99.90;;;;;;5074925;28;20048;-62
2023/07/22 03:02:52;;;;;;;16.00;9.65;;;12.60;99.90;;;;;;5074899;28;20043;-63
2023/07/22 03:05:18;;;;;;;13.68;9.30;;;12.60;99.90;;;;;;5075205;28;20040;-62
2023/07/22 03:07:44;;;;;;;15.38;9.57;;;12.60;99.90;;;;;;5074050;28;20083;-63
2023/07/22 03:10:10;;;;;;;15.20;10.52;;;12.60;99.90;;;;;;5074737;28;20075;-63
2023/07/22 03:12:36;;;;;;;16.70;9.50;;;12.50;99.90;;;;;;5075125;28;20090;-62
2023/07/22 03:15:03;;;;;;;16.98;9.93;;;12.60;99.90;;;;;;5074593;28;20071;-63
2023/07/22 03:17:29;;;;;;;14.15;9.32;;;12.60;99.90;;;;;;5057083;28;20037;-62
2023/07/22 03:19:55;;;;;;;13.85;9.05;;;12.60;99.90;;;;;;5074860;28;20042;-63
2023/07/22 03:22:21;;;;;;;17.85;10.70;;;12.60;99.90;;;;;;5056877;28;20140;-63
2023/07/22 03:24:47;;;;;;;15.00;9.85;;;12.60;99.90;;;;;;5074553;28;20120;-62
2023/07/22 03:27:15;;;;;;;18.15;10.85;;;12.60;99.90;;;;;;5074415;28;20051;-63
2023/07/22 03:29:41;;;;;;;17.98;12.05;;;12.60;99.90;;;;;;5074783;28;20048;-63
2023/07/22 03:32:07;;;;;;;18.42;12.82;;;12.60;99.90;;;;;;5063720;28;20055;-62
2023/07/22 03:34:34;;;;;;;17.73;10.57;;;12.50;99.90;;;;;;5076427;28;20051;-62
2023/07/22 03:37:00;;;;;;;16.65;11.10;;;12.50;99.90;;;;;;5076544;28;20044;-62
2023/07/22 03:39:26;;;;;;;15.90;10.43;;;12.60;99.90;;;;;;5094862;28;20548;-62
2023/07/22 03:41:52;;;;;;;18.40;10.93;;;12.60;99.90;;;;;;5076390;28;20480;-63
2023/07/22 03:44:17;;;;;;;16.85;10.95;;;12.60;99.90;;;;;;5094581;28;20115;-62
2023/07/22 03:46:43;;;;;;;17.50;11.45;;;12.60;99.90;;;;;;5094640;28;20043;-62
2023/07/22 03:49:09;;;;;;;17.63;11.50;;;12.60;99.90;;;;;;5094380;28;20150;-62
2023/07/22 03:51:35;;;;;;;19.25;12.45;;;12.60;99.90;;;;;;5076180;28;20044;-62
2023/07/22 03:54:01;;;;;;;23.50;14.50;;;12.70;99.90;;;;;;5094242;28;20044;-63
2023/07/22 03:56:26;;;;;;;19.00;12.80;;;12.70;99.90;;;;;;5094123;28;20036;-62
2023/07/22 03:58:53;;;;;;;20.45;13.00;;;12.70;99.90;;;;;;5094046;28;20059;-62
2023/07/22 04:01:19;;;;;;;25.77;14.45;;;12.80;99.90;;;;;;5076172;28;20040;-63
2023/07/22 04:03:45;;;;;;;18.52;12.43;;;12.80;99.90;;;;;;5094053;28;20046;-62
2023/07/22 04:06:11;;;;;;;21.70;13.50;;;12.80;99.90;;;;;;5093887;28;20122;-63
2023/07/22 04:08:37;;;;;;;23.60;15.02;;;12.80;99.90;;;;;;5075763;28;20098;-62
2023/07/22 04:11:03;;;;;;;21.88;14.35;;;12.80;99.90;;;;;;5093788;28;20040;-63
2023/07/22 04:13:29;;;;;;;23.13;14.55;;;12.80;99.90;;;;;;5093969;28;20075;-63
2023/07/22 04:15:55;;;;;;;19.42;13.05;;;12.80;99.90;;;;;;5094267;28;20032;-63
2023/07/22 04:18:21;;;;;;;20.65;14.07;;;12.90;99.90;;;;;;5059170;28;20047;-63
2023/07/22 04:20:50;;;;;;;20.30;13.65;;;12.90;99.90;;;;;;5075831;28;20046;-62
2023/07/22 04:23:16;;;;;;;21.85;14.63;;;12.90;99.90;;;;;;5094130;28;20063;-63
2023/07/22 04:25:43;;;;;;;20.02;12.63;;;13.00;99.90;;;;;;5075536;28;20044;-63
2023/07/22 04:28:09;;;;;;;24.48;14.68;;;13.00;99.90;;;;;;5093751;28;20040;-63
2023/07/22 04:30:35;;;;;;;20.73;13.23;;;13.10;99.90;;;;;;5093569;28;20602;-63
2023/07/22 04:33:02;;;;;;;23.40;14.63;;;13.10;99.90;;;;;;5093562;28;20047;-62
2023/07/22 04:35:31;;;;;;;24.50;14.45;;;13.20;99.90;;;;;;5075679;28;20036;-63
2023/07/22 04:37:57;;;;;;;20.80;13.20;;;13.20;99.90;;;;;;5093774;28;20047;-64
2023/07/22 04:40:26;;;;;;;21.45;13.98;;;13.20;99.90;;;;;;5093424;28;20036;-63
2023/07/22 04:42:51;;;;;;;18.60;12.80;;;13.30;99.90;;;;;;5093724;28;20032;-63
2023/07/22 04:45:20;;;;;;;23.25;14.88;;;13.30;99.90;;;;;;5093691;28;20024;-64
2023/07/22 04:47:48;;;;;;;21.92;14.73;;;13.40;99.90;;;;;;5093723;28;20040;-63
2023/07/22 04:50:14;;;;;;;20.00;13.05;;;13.40;99.90;;;;;;5075205;28;20086;-63
2023/07/22 04:52:42;;;;;;;21.35;13.63;;;13.40;99.90;;;;;;5093583;28;20067;-62
2023/07/22 04:55:09;;;;;;;20.25;13.15;;;13.50;99.90;;;;;;5093343;28;20089;-62
2023/07/22 04:57:42;;;;;;;18.70;12.70;;;13.50;99.90;;;;;;5075051;28;20132;-62
2023/07/22 05:00:16;;;;;;;18.00;12.40;;;13.60;99.90;;;;;;5075503;28;20047;-62
2023/07/22 05:02:45;;;;;;;19.15;13.15;;;13.60;99.90;;;;;;5093508;28;20089;-62
2023/07/22 05:05:15;;;;;;;20.25;13.48;;;13.60;99.90;;;;;;5093364;28;20051;-62
2023/07/22 05:07:41;;;;;;;20.80;12.65;;;13.70;99.90;;;;;;5093319;28;20036;-62
2023/07/22 05:10:11;;;;;;;23.00;13.75;;;13.70;99.90;;;;;;5075365;28;20039;-62
2023/07/22 05:12:41;;;;;;;21.38;14.18;;;13.80;99.90;;;;;;5093075;28;20051;-62
2023/07/22 05:15:08;;;;;;;17.88;12.10;;;13.80;99.90;;;;;;5093119;28;20046;-62
2023/07/22 05:17:33;;;;;;;19.13;12.70;;;13.80;99.90;;;;;;5093327;28;20062;-62
2023/07/22 05:19:59;;;;;;;22.05;14.35;;;13.90;99.90;;;;;;5093286;28;20106;-62
2023/07/22 05:22:25;;;;;;;19.25;13.10;;;13.90;99.90;;;;;;5075004;28;20487;-65
2023/07/22 05:24:51;;;;;;;22.20;14.68;;;13.90;99.90;;;;;;5075143;28;20079;-63
2023/07/22 05:27:17;;;;;;;20.77;12.88;;;13.90;99.90;;;;;;5092957;28;20036;-62
2023/07/22 05:29:44;;;;;;;16.83;11.93;;;13.90;99.90;;;;;;5093165;28;20044;-62
2023/07/22 05:32:10;;;;;;;21.45;13.75;;;13.90;99.90;;;;;;5095587;28;20043;-62
2023/07/22 05:34:36;;;;;;;18.98;12.90;;;14.00;99.90;;;;;;5096888;28;20121;-62
2023/07/22 05:37:02;;;;;;;19.35;12.73;;;14.00;99.90;;;;;;5096695;28;20068;-63
2023/07/22 05:39:28;;;;;;;19.75;13.32;;;14.00;99.90;;;;;;5097137;28;20035;-63
2023/07/22 05:41:54;;;;;;;21.77;14.10;;;14.00;99.90;;;;;;5096701;28;20399;-62
2023/07/22 05:44:19;;;;;;;20.45;13.70;;;14.10;99.90;;;;;;5096694;28;20123;-62
2023/07/22 05:46:45;;;;;;;19.35;14.15;;;14.10;99.90;;;;;;5078829;28;20540;-62
2023/07/22 05:49:11;;;;;;;19.42;13.45;;;14.10;99.90;;;;;;5096677;28;20127;-63
2023/07/22 05:51:37;;;;;;;21.25;14.55;;;14.10;99.90;;;;;;5078311;28;20048;-63
2023/07/22 05:54:03;;;;;;;18.98;12.68;;;14.10;99.90;;;;;;5096831;28;20498;-63
2023/07/22 05:56:29;;;;;;;20.63;13.23;;;14.10;99.90;;;;;;5096532;28;20115;-62
2023/07/22 05:58:55;;;;;;;21.63;13.57;;;14.10;99.90;;;;;;5096346;28;20036;-63
2023/07/22 06:01:21;;;;;;;18.17;12.75;;;14.10;99.90;;;;;;5096357;28;20047;-62
2023/07/22 06:03:47;;;;;;;17.58;12.63;;;14.20;99.90;;;;;;5096644;28;20404;-63
2023/07/22 06:06:13;;;;;;;20.38;13.23;;;14.10;99.90;;;;;;5096678;28;20036;-63
2023/07/22 06:08:39;;;;;;;18.40;12.98;;;14.20;99.90;;;;;;5096314;28;20040;-63
2023/07/22 06:11:05;;;;;;;18.77;12.98;;;14.10;99.90;;;;;;5078162;28;20085;-63
2023/07/22 06:13:31;;;;;;;18.05;12.52;;;14.20;99.90;;;;;;5096539;28;20476;-61
2023/07/22 06:15:56;;;;;;;18.55;13.07;;;14.20;99.90;;;;;;5078146;28;20085;-63
2023/07/22 06:18:23;;;;;;;18.55;12.93;;;14.20;99.90;;;;;;5096207;28;20040;-63
2023/07/22 06:20:50;;;;;;;19.27;12.85;;;14.20;99.90;;;;;;5077943;28;20052;-63
2023/07/22 06:23:15;;;;;;;19.75;13.80;;;14.20;99.90;;;;;;5096084;28;20119;-63
2023/07/22 06:25:41;;;;;;;18.45;13.02;;;14.30;99.90;;;;;;5077947;28;20071;-64
2023/07/22 06:28:07;;;;;;;19.10;13.38;;;14.30;99.90;;;;;;5096073;28;20032;-62
2023/07/22 06:30:33;;;;;;;20.58;13.48;;;14.30;99.90;;;;;;5077621;28;20071;-62
2023/07/22 06:32:58;;;;;;;20.73;14.25;;;14.30;99.90;;;;;;5095811;28;20101;-63
2023/07/22 06:35:24;;;;;;;21.85;15.02;;;14.30;99.90;;;;;;5096098;28;20040;-63
2023/07/22 06:37:50;;;;;;;23.58;14.90;;;14.40;99.90;;;;;;5095786;28;20044;-63
2023/07/22 06:40:16;;;;;;;20.63;15.50;;;14.40;99.90;;;;;;5077898;28;20142;-63
2023/07/22 06:42:41;;;;;;;23.48;15.98;;;14.40;99.90;;;;;;5076164;28;20040;-63
2023/07/22 06:45:07;;;;;;;19.95;14.38;;;14.50;99.90;;;;;;5095797;28;20081;-62
2023/07/22 06:47:34;;;;;;;21.88;15.20;;;14.50;99.90;;;;;;5095857;28;20484;-62
2023/07/22 06:50:00;;;;;;;22.98;15.57;;;14.60;99.90;;;;;;5095551;28;20118;-63
2023/07/22 06:52:26;;;;;;;22.05;15.60;;;14.80;99.90;;;;;;5095698;28;20044;-63
2023/07/22 06:54:52;;;;;;;24.08;16.33;;;14.90;99.90;;;;;;5095686;28;20111;-63
2023/07/22 06:57:17;;;;;;;22.55;16.48;;;15.10;99.90;;;;;;5095614;28;20484;-62
2023/07/22 06:59:43;;;;;;;25.15;16.90;;;15.10;99.90;;;;;;5095626;28;20392;-62
2023/07/22 07:02:09;;;;;;;28.33;19.50;;;15.20;99.90;;;;;;5095541;28;20040;-63
2023/07/22 07:04:35;;;;;;;25.13;18.20;;;15.30;99.90;;;;;;5095296;28;20036;-63
2023/07/22 07:07:01;;;;;;;24.58;17.52;;;15.40;99.90;;;;;;5060383;28;20048;-63
2023/07/22 07:09:27;;;;;;;29.13;19.60;;;15.50;99.90;;;;;;5095177;28;20121;-62
2023/07/22 07:11:55;;;;;;;25.85;19.27;;;15.60;99.90;;;;;;5094930;28;20040;-63
2023/07/22 07:14:21;;;;;;;26.65;18.48;;;15.70;99.90;;;;;;5095266;28;20040;-62
2023/07/22 07:16:47;;;;;;;27.42;19.58;;;15.80;99.90;;;;;;5077379;28;20123;-63
2023/07/22 07:19:13;;;;;;;25.42;18.50;;;15.80;99.90;;;;;;5095202;28;20040;-62
2023/07/22 07:21:39;;;;;;;26.08;17.58;;;15.90;99.90;;;;;;5094890;28;20119;-62
2023/07/22 07:24:05;;;;;;;27.40;19.50;;;16.00;99.90;;;;;;5076671;28;20054;-62
2023/07/22 07:26:30;;;;;;;23.33;17.95;;;16.00;99.90;;;;;;5077084;28;20079;-63
2023/07/22 07:28:56;;;;;;;25.42;18.67;;;16.10;99.90;;;;;;5095099;28;20051;-62
2023/07/22 07:31:22;;;;;;;25.65;18.13;;;16.30;99.90;;;;;;5094628;28;20376;-62
2023/07/22 07:33:48;;;;;;;26.98;18.17;;;16.40;99.90;;;;;;5094404;28;20094;-62
2023/07/22 07:36:14;;;;;;;24.20;17.35;;;16.60;99.90;;;;;;5076524;28;20046;-62
2023/07/22 07:38:43;;;;;;;24.50;18.35;;;16.70;99.90;;;;;;5076243;28;20157;-62
2023/07/22 07:41:11;;;;;;;23.80;17.20;;;16.80;99.90;;;;;;5094571;28;20044;-62
2023/07/22 07:43:41;;;;;;;25.17;17.92;;;16.80;99.90;;;;;;5077200;28;20048;-63
2023/07/22 07:46:17;;;;;;;25.70;18.65;;;16.90;99.90;;;;;;5094619;28;20125;-63
2023/07/22 07:48:48;;;;;;;25.73;18.75;;;16.90;99.90;;;;;;5094675;28;20040;-62
2023/07/22 07:51:14;;;;;;;24.65;17.42;;;17.00;99.90;;;;;;5076255;28;20044;-62
2023/07/22 07:53:44;;;;;;;24.02;18.13;;;17.10;99.90;;;;;;5093972;28;20044;-62
2023/07/22 07:56:11;;;;;;;27.08;18.67;;;17.30;99.90;;;;;;5076131;28;20042;-62
2023/07/22 07:58:38;;;;;;;24.30;18.45;;;17.40;99.90;;;;;;5094138;28;20036;-62
2023/07/22 08:01:05;;;;;;;25.83;18.50;;;17.60;99.90;;;;;;5076071;28;20044;-62
2023/07/22 08:03:32;;;;;;;21.98;16.08;;;17.70;99.90;;;;;;5076548;28;20487;-63
2023/07/22 08:05:58;;;;;;;22.38;17.23;;;17.80;99.90;;;;;;5076271;28;20040;-63
2023/07/22 08:08:24;;;;;;;23.88;16.73;;;18.00;99.90;;;;;;5076198;28;20579;-63
2023/07/22 08:11:04;;;;;;;23.33;17.52;;;18.20;99.90;;;;;;5076277;28;20046;-63
2023/07/22 08:13:31;;;;;;;21.90;16.70;;;18.30;99.90;;;;;;5094211;28;20082;-63
2023/07/22 08:15:58;;;;;;;20.17;15.77;;;18.30;99.90;;;;;;5094194;28;20436;-63
2023/07/22 08:18:23;;;;;;;21.08;15.85;;;18.40;99.90;;;;;;5093820;28;20036;-63
2023/07/22 08:20:52;;;;;;;23.35;16.58;;;18.60;99.90;;;;;;5093996;28;20051;-65
2023/07/22 08:23:18;;;;;;;19.92;15.35;;;18.70;99.90;;;;;;5094062;28;20051;-68
2023/07/22 08:25:43;;;;;;;19.20;14.50;;;18.70;99.90;;;;;;5058930;28;20483;-65
2023/07/22 08:28:09;;;;;;;20.65;15.50;;;18.80;99.90;;;;;;5093607;28;20075;-63
2023/07/22 08:30:35;;;;;;;20.38;14.50;;;18.80;99.90;;;;;;5075785;28;20039;-62
2023/07/22 08:33:01;;;;;;;18.63;14.65;;;18.90;99.90;;;;;;5093594;28;20518;-62
2023/07/22 08:35:28;;;;;;;19.27;13.75;;;19.10;99.90;;;;;;5058973;28;20044;-62
2023/07/22 08:37:54;;;;;;;17.73;12.55;;;19.20;99.90;;;;;;5075575;28;20549;-62
2023/07/22 08:40:20;;;;;;;19.08;13.35;;;19.40;99.90;;;;;;5042206;28;20048;-62
2023/07/22 08:42:50;;;;;;;17.77;13.50;;;19.60;99.90;;;;;;5075341;28;20120;-62
2023/07/22 08:45:17;;;;;;;16.90;12.48;;;19.80;99.90;;;;;;5093797;28;20032;-61
2023/07/22 08:47:47;;;;;;;19.65;13.60;;;19.90;99.90;;;;;;5058599;28;20052;-62
2023/07/22 08:50:17;;;;;;;17.55;12.85;;;19.90;99.90;;;;;;5059028;28;20036;-62
2023/07/22 08:52:44;;;;;;;17.80;12.90;;;20.10;99.90;;;;;;5058414;28;20051;-64
2023/07/22 08:55:10;;;;;;;17.73;12.90;;;20.10;99.90;;;;;;5075378;28;20526;-63
2023/07/22 08:57:38;;;;;;;16.75;12.63;;;20.20;99.90;;;;;;5075205;28;20047;-63
2023/07/22 09:00:06;;;;;;;15.45;10.93;;;20.20;99.90;;;;;;5093533;28;20039;-62
2023/07/22 09:02:35;;;;;;;14.15;9.00;;;20.10;99.90;;;;;;5093490;28;20067;-61
2023/07/22 09:05:02;;;;;;;15.32;9.93;;;20.10;99.90;;;;;;5092934;28;20077;-62
2023/07/22 09:07:29;;;;;;;16.70;10.30;;;20.00;99.90;;;;;;5092869;28;20185;-61
2023/07/22 09:09:57;;;;;;;14.18;10.18;;;19.90;99.90;;;;;;5093432;28;20545;-62
2023/07/22 09:12:24;;;;;;;13.48;9.52;;;19.80;99.90;;;;;;5093363;28;20036;-62
2023/07/22 09:14:52;;;;;;;14.75;9.85;;;19.80;99.90;;;;;;5093318;28;20500;-62
2023/07/22 09:17:18;;;;;;;14.07;10.00;;;19.70;99.90;;;;;;5093029;28;20032;-62
2023/07/22 09:19:43;;;;;;;15.65;9.85;;;19.60;99.90;;;;;;5093277;28;20036;-62
2023/07/22 09:22:09;;;;;;;16.08;9.38;;;19.50;99.90;;;;;;5075180;28;20479;-63
2023/07/22 09:24:35;;;;;;;12.85;8.88;;;19.40;99.90;;;;;;5093230;28;20055;-62
2023/07/22 09:27:01;;;;;;;14.48;9.10;;;19.40;99.90;;;;;;5092975;28;20092;-62
2023/07/22 09:29:34;;;;;;;13.65;9.68;;;19.40;99.90;;;;;;5075016;28;20440;-62
2023/07/22 09:32:00;;;;;;;13.07;9.20;;;19.30;99.90;;;;;;5074910;28;20060;-62
2023/07/22 09:34:27;;;;;;;14.50;9.77;;;19.20;99.90;;;;;;5093139;28;20541;-62
2023/07/22 09:36:55;;;;;;;13.50;9.63;;;19.10;99.90;;;;;;5075209;28;20119;-62
2023/07/22 09:39:21;;;;;;;13.65;9.60;;;19.00;99.90;;;;;;5074638;28;20051;-62
2023/07/22 09:41:47;;;;;;;16.50;10.13;;;18.80;99.90;;;;;;5092860;28;20051;-62
2023/07/22 09:44:13;;;;;;;14.48;10.25;;;18.70;99.90;;;;;;5058145;28;20096;-62
2023/07/22 09:46:40;;;;;;;14.65;10.50;;;18.60;99.90;;;;;;5074611;28;20535;-61
2023/07/22 09:49:08;;;;;;;14.38;10.57;;;18.50;99.90;;;;;;5092767;28;20052;-62
2023/07/22 09:51:36;;;;;;;16.73;10.80;;;18.30;99.90;;;;;;5092891;28;20047;-62
2023/07/22 09:54:03;;;;;;;15.43;10.35;;;18.20;99.90;;;;;;5075211;28;20083;-62
2023/07/22 09:56:29;;;;;;;16.70;10.65;;;18.10;99.90;;;;;;5074621;28;20047;-63
2023/07/22 09:58:56;;;;;;;15.10;9.30;;;18.00;99.90;;;;;;5074884;28;20042;-61
2023/07/22 10:01:26;;;;;;;12.52;9.30;;;17.90;99.90;;;;;;5092936;28;20044;-64
2023/07/22 10:03:57;;;;;;;16.10;9.32;;;17.80;99.90;;;;;;5092772;28;20118;-63
2023/07/22 10:06:29;;;;;;;10.50;7.28;;;17.70;99.90;;;;;;5092964;28;20035;-61
2023/07/22 10:09:08;;;;;;;12.55;7.75;;;17.60;99.90;;;;;;5092936;28;20071;-62
2023/07/22 10:11:35;;;;;;;14.73;9.05;;;17.50;99.90;;;;;;5074313;28;20043;-63
2023/07/22 10:14:05;;;;;;;12.13;7.47;;;17.40;99.90;;;;;;5092452;28;20040;-62
2023/07/22 10:16:31;;;;;;;10.57;7.22;;;17.30;99.90;;;;;;5074763;28;20048;-62
2023/07/22 10:18:59;;;;;;;11.48;6.85;;;17.10;99.90;;;;;;5096153;28;20124;-62
2023/07/22 10:21:26;;;;;;;10.25;6.85;;;17.10;99.90;;;;;;5096414;28;20032;-62
2023/07/22 10:23:52;;;;;;;7.97;5.28;;;17.10;99.90;;;;;;5061255;28;20118;-62
2023/07/22 10:26:20;;;;;;;8.30;4.93;;;17.10;99.90;;;;;;5096317;28;20122;-62
2023/07/22 10:28:47;;;;;;;8.40;4.72;;;17.10;99.90;;;;;;5077647;28;20043;-62
2023/07/22 10:31:18;;;;;;;7.50;4.72;;;17.10;99.90;;;;;;5096112;28;20048;-62
2023/07/22 10:33:45;;;;;;;8.37;4.93;;;17.20;99.90;;;;;;5095566;28;20102;-62
2023/07/22 10:36:15;;;;;;;8.52;5.53;;;17.20;99.90;;;;;;5078314;28;20036;-62
2023/07/22 10:38:42;;;;;;;9.38;5.40;;;17.20;99.90;;;;;;5077973;28;20143;-62
2023/07/22 10:41:19;;;;;;;9.35;5.82;;;17.20;99.90;;;;;;5077562;28;20135;-62
2023/07/22 10:43:56;;;;;;;8.05;5.53;;;17.30;99.90;;;;;;5095681;28;20042;-62
2023/07/22 10:46:40;;;;;;;9.60;5.60;;;17.30;99.90;;;;;;5077520;28;20036;-61
2023/07/22 10:49:16;;;;;;;9.57;6.00;;;17.30;99.90;;;;;;5095806;28;20507;-60
2023/07/22 10:51:48;;;;;;;8.50;5.82;;;17.30;99.90;;;;;;5095384;28;20492;-61
2023/07/22 10:54:30;;;;;;;9.00;6.57;;;17.30;99.90;;;;;;5077654;28;20046;-62
2023/07/22 10:56:56;;;;;;;9.68;6.03;;;17.20;99.90;;;;;;5095496;28;20075;-62
2023/07/22 10:59:27;;;;;;;9.05;6.38;;;17.20;99.90;;;;;;5077194;28;20051;-62
2023/07/22 11:01:54;;;;;;;9.65;6.38;;;17.10;99.90;;;;;;5077593;28;20101;-62
2023/07/22 11:04:32;;;;;;;9.13;6.47;;;17.00;99.90;;;;;;5095572;28;20498;-62
2023/07/22 11:07:00;;;;;;;8.45;6.13;;;16.90;99.90;;;;;;5077185;28;20072;-62
2023/07/22 11:09:35;;;;;;;9.73;6.63;;;16.90;99.90;;;;;;5095007;28;20119;-62
2023/07/22 11:12:04;;;;;;;;;;;17.00;99.90;;;;;;5095827;28;20471;-62
2023/07/22 11:14:33;;;;;;;10.50;7.43;;;17.00;99.90;;;;;;5095405;28;20407;-62
2023/07/22 11:17:07;;;;;;;11.40;7.63;;;17.00;99.90;;;;;;5076933;28;20039;-62
2023/07/22 11:19:34;;;;;;;13.07;9.77;;;16.90;99.90;;;;;;5095279;28;20048;-62
2023/07/22 11:22:00;;;;;;;12.02;8.77;;;16.90;99.90;;;;;;5060564;28;20040;-61
2023/07/22 11:24:26;;;;;;;10.85;8.15;;;16.90;99.90;;;;;;5060425;28;20083;-62
2023/07/22 11:26:53;;;;;;;10.63;7.97;;;16.80;99.90;;;;;;5094786;28;20090;-62
2023/07/22 11:29:19;;;;;;;11.45;8.30;;;16.80;99.90;;;;;;5094339;28;20120;-62
2023/07/22 11:31:47;;;;;;;11.38;8.57;;;16.80;99.90;;;;;;5094707;28;20119;-63
2023/07/22 11:34:18;;;;;;;12.25;8.07;;;16.80;99.90;;;;;;5095011;28;20040;-62
2023/07/22 11:36:45;;;;;;;12.55;8.77;;;16.80;99.90;;;;;;5076609;28;20119;-64
2023/07/22 11:39:13;;;;;;;14.55;9.00;;;16.90;99.90;;;;;;5094685;28;20043;-62
2023/07/22 11:41:43;;;;;;;11.65;8.52;;;16.90;99.90;;;;;;5076743;28;20031;-61
2023/07/22 11:44:12;;;;;;;13.23;9.32;;;16.90;99.90;;;;;;5094494;28;20036;-62
2023/07/22 11:46:56;;;;;;;11.27;9.18;;;17.00;99.90;;;;;;5094766;28;20503;-63
2023/07/22 11:49:28;;;;;;;14.70;10.45;;;17.00;99.90;;;;;;5094778;28;20037;-62
2023/07/22 11:51:56;;;;;;;13.68;10.27;;;17.00;99.90;;;;;;5077285;28;20472;-63
2023/07/22 11:54:22;;;;;;;13.60;9.85;;;17.00;99.90;;;;;;5094520;28;20040;-63
2023/07/22 11:56:48;;;;;;;11.73;8.27;;;17.00;99.90;;;;;;5094570;28;20028;-61
2023/07/22 11:59:14;;;;;;;10.63;7.38;;;17.00;99.90;;;;;;5094537;28;20043;-61
2023/07/22 12:01:43;;;;;;;10.00;6.95;;;17.00;99.90;;;;;;5059781;28;20059;-61
2023/07/22 12:04:12;;;;;;;9.85;7.32;;;16.90;99.90;;;;;;5094039;28;20119;-62
2023/07/22 12:06:38;;;;;;;9.93;7.35;;;16.80;99.90;;;;;;5094443;28;20036;-62
2023/07/22 12:09:03;;;;;;;10.00;6.88;;;16.80;99.90;;;;;;5093984;28;20488;-62
2023/07/22 12:11:33;;;;;;;9.25;6.63;;;16.80;99.90;;;;;;5093963;28;20036;-62
2023/07/22 12:14:11;;;;;;;11.10;7.97;;;16.80;99.90;;;;;;5094199;28;20539;-62
2023/07/22 12:16:39;;;;;;;13.02;8.52;;;16.90;99.90;;;;;;5094214;28;20036;-63
2023/07/22 12:19:05;;;;;;;9.88;8.10;;;17.00;99.90;;;;;;5093900;28;20082;-62
2023/07/22 12:21:32;;;;;;;10.63;7.95;;;17.10;99.90;;;;;;5094018;28;20109;-63
2023/07/22 12:23:58;;;;;;;11.10;8.60;;;17.20;99.90;;;;;;5093852;28;20040;-62
2023/07/22 12:26:24;;;;;;;11.13;8.30;;;17.20;99.90;;;;;;5075874;28;20085;-63
2023/07/22 12:28:50;;;;;;;10.48;8.23;;;17.10;99.90;;;;;;5059226;28;20245;-64
2023/07/22 12:31:19;;;;;;;10.80;8.70;;;17.10;99.90;;;;;;5075328;28;20035;-63
2023/07/22 12:33:45;;;;;;;13.50;8.40;;;17.10;99.90;;;;;;5093421;28;20071;-63